ΕΜΥ, Εθνική Μετεωρολογική Υπηρεσία - Δελτία Καιρού, Προγνώσεις

ΑΕΡΟΝΑΥΤΙΛΙΑ

GREEK AIRPORTS CODES

TAF LGTT 051000Z 0512/0521 36015G25KT 9999 FEW025 BECMG 0516/0518 33015KT=

EUROPEAN AIRPORTS CODES

LFPO 060000Z 29010KT 9999 FEW046 15/09 Q1019 NOSIG=